Time;durP1;ratioP1;P1;durP2;ratioP2;P2;SDS_P1;SDS_P2;PMS_P1;PMS_P2;Temp;Humidity;BMP_temperature;BMP_pressure;BME280_temperature;BME280_humidity;BME280_pressure;Samples;Min_cycle;Max_cycle;Signal;HPM_P1;HPM_P2
2023/07/04 00:02:21;;;;;;;6.30;3.70;;;19.40;99.90;;;;;;5046089;28;20200;-80
2023/07/04 00:04:48;;;;;;;7.40;3.80;;;19.40;99.90;;;;;;5028578;28;20208;-80
2023/07/04 00:07:15;;;;;;;8.13;3.77;;;19.40;99.90;;;;;;5035401;28;20208;-80
2023/07/04 00:09:43;;;;;;;8.20;3.90;;;19.40;99.90;;;;;;5045717;28;20938;-80
2023/07/04 00:12:09;;;;;;;5.93;4.00;;;19.40;99.90;;;;;;5045932;28;20200;-80
2023/07/04 00:14:36;;;;;;;6.00;3.53;;;19.40;99.90;;;;;;5045805;28;20319;-81
2023/07/04 00:17:05;;;;;;;13.20;4.17;;;19.40;99.90;;;;;;5045968;28;20196;-81
2023/07/04 00:19:33;;;;;;;5.90;3.67;;;19.40;99.90;;;;;;5045319;28;20270;-80
2023/07/04 00:22:00;;;;;;;6.60;3.40;;;19.40;99.90;;;;;;5045482;28;20207;-80
2023/07/04 00:24:27;;;;;;;5.77;3.70;;;19.40;99.90;;;;;;5045440;28;20303;-80
2023/07/04 00:26:56;;;;;;;6.53;3.77;;;19.30;99.90;;;;;;5045590;28;20236;-80
2023/07/04 00:29:23;;;;;;;7.30;3.50;;;19.00;99.90;;;;;;5045757;28;20212;-80
2023/07/04 00:31:50;;;;;;;8.27;3.77;;;18.80;99.90;;;;;;5048721;28;20223;-80
2023/07/04 00:34:17;;;;;;;5.77;4.00;;;18.80;99.90;;;;;;5041280;28;20201;-80
2023/07/04 00:36:46;;;;;;;8.07;3.70;;;18.80;99.90;;;;;;5035666;28;20293;-80
2023/07/04 00:39:12;;;;;;;5.13;3.77;;;18.90;99.90;;;;;;5049586;28;20214;-80
2023/07/04 00:41:40;;;;;;;8.03;4.47;;;18.80;99.90;;;;;;5048827;28;20323;-80
2023/07/04 00:44:19;;;;;;;7.40;4.00;;;18.80;99.90;;;;;;5049944;28;20212;-80
2023/07/04 00:46:53;;;;;;;5.13;3.90;;;18.70;99.90;;;;;;5049201;28;20211;-80
2023/07/04 00:49:23;;;;;;;5.27;3.70;;;18.80;99.90;;;;;;5049251;28;20649;-82
2023/07/04 00:51:57;;;;;;;7.30;3.43;;;18.80;99.90;;;;;;5048733;28;20286;-82
2023/07/04 00:54:25;;;;;;;6.00;3.50;;;18.80;99.90;;;;;;5048780;28;20286;-83
2023/07/04 00:56:56;;;;;;;5.27;3.97;;;18.90;99.90;;;;;;5049209;28;20709;-82
2023/07/04 00:59:23;;;;;;;6.97;4.03;;;18.90;99.90;;;;;;5049142;28;20279;-82
2023/07/04 01:01:50;;;;;;;8.97;4.50;;;18.80;99.90;;;;;;5048963;28;20287;-82
2023/07/04 01:04:17;;;;;;;6.27;3.63;;;18.70;99.90;;;;;;5048837;28;20204;-82
2023/07/04 01:06:49;;;;;;;6.93;4.00;;;18.60;99.90;;;;;;5048727;28;20667;-80
2023/07/04 01:09:19;;;;;;;5.47;4.17;;;18.70;99.90;;;;;;5048862;28;20283;-82
2023/07/04 01:11:49;;;;;;;7.23;4.03;;;18.80;99.90;;;;;;5048568;28;20236;-81
2023/07/04 01:14:21;;;;;;;7.77;3.93;;;18.80;99.90;;;;;;5048511;28;20204;-81
2023/07/04 01:16:50;;;;;;;7.33;3.80;;;18.70;99.90;;;;;;5048104;28;20714;-82
2023/07/04 01:19:24;;;;;;;4.50;3.17;;;18.60;99.90;;;;;;5048178;28;20223;-81
2023/07/04 01:22:01;;;;;;;4.97;3.97;;;18.60;99.90;;;;;;5047814;28;20203;-80
2023/07/04 01:24:38;;;;;;;4.93;3.50;;;18.50;99.90;;;;;;5037347;28;20207;-81
2023/07/04 01:27:07;;;;;;;8.27;4.20;;;18.50;99.90;;;;;;5047954;28;20236;-80
2023/07/04 01:29:36;;;;;;;7.73;3.60;;;18.40;99.90;;;;;;5047694;28;20295;-80
2023/07/04 01:32:03;;;;;;;8.53;4.03;;;18.40;99.90;;;;;;5048108;28;20232;-80
2023/07/04 01:34:33;;;;;;;5.53;3.90;;;18.50;99.90;;;;;;5048457;28;20299;-81
2023/07/04 01:37:01;;;;;;;6.93;4.03;;;18.40;99.90;;;;;;5040211;28;20212;-82
2023/07/04 01:39:29;;;;;;;5.93;4.00;;;18.40;99.90;;;;;;5027674;28;20209;-80
2023/07/04 01:41:55;;;;;;;5.43;3.80;;;18.50;99.90;;;;;;5038760;28;20215;-81
2023/07/04 01:44:24;;;;;;;4.83;3.80;;;18.40;99.90;;;;;;5048161;28;20299;-79
2023/07/04 01:46:52;;;;;;;9.00;4.03;;;18.40;99.90;;;;;;5048552;28;20208;-80
2023/07/04 01:49:19;;;;;;;5.43;3.87;;;18.40;99.90;;;;;;5048633;28;20323;-80
2023/07/04 01:51:46;;;;;;;7.47;3.87;;;18.50;99.90;;;;;;5048366;28;20204;-79
2023/07/04 01:54:17;;;;;;;6.80;3.90;;;18.40;99.90;;;;;;5047913;28;20704;-81
2023/07/04 01:56:46;;;;;;;6.87;4.43;;;18.40;99.90;;;;;;5048257;28;20232;-81
2023/07/04 01:59:13;;;;;;;7.83;4.03;;;18.40;99.90;;;;;;5047633;28;20206;-80
2023/07/04 02:01:41;;;;;;;7.07;3.80;;;18.40;99.90;;;;;;5047477;28;20210;-79
2023/07/04 02:04:08;;;;;;;6.97;3.80;;;18.40;99.90;;;;;;5047575;28;20382;-79
2023/07/04 02:06:35;;;;;;;6.73;4.40;;;18.40;99.90;;;;;;5032658;28;20221;-79
2023/07/04 02:09:02;;;;;;;6.87;4.10;;;18.40;99.90;;;;;;5028010;28;20299;-79
2023/07/04 02:11:29;;;;;;;5.33;4.00;;;18.40;99.90;;;;;;5040761;28;20667;-79
2023/07/04 02:13:57;;;;;;;5.40;4.03;;;18.30;99.90;;;;;;5047083;28;20286;-79
2023/07/04 02:16:24;;;;;;;5.73;3.90;;;18.30;99.90;;;;;;5047632;28;20236;-78
2023/07/04 02:18:52;;;;;;;9.00;3.80;;;18.30;99.90;;;;;;5047168;28;20734;-77
2023/07/04 02:21:19;;;;;;;6.73;3.63;;;18.30;99.90;;;;;;5031658;28;20205;-78
2023/07/04 02:23:46;;;;;;;9.10;4.50;;;18.30;99.90;;;;;;5045575;28;20253;-77
2023/07/04 02:26:13;;;;;;;5.83;3.67;;;18.30;99.90;;;;;;5044151;28;20206;-80
2023/07/04 02:28:40;;;;;;;11.30;4.90;;;18.30;99.90;;;;;;5045477;28;20291;-79
2023/07/04 02:31:08;;;;;;;11.90;4.20;;;18.30;99.90;;;;;;5045309;28;20218;-79
2023/07/04 02:33:35;;;;;;;8.07;3.93;;;18.30;99.90;;;;;;5044815;28;20285;-79
2023/07/04 02:36:04;;;;;;;6.97;4.03;;;18.30;99.90;;;;;;5045358;28;20769;-79
2023/07/04 02:38:31;;;;;;;8.30;4.10;;;18.20;99.90;;;;;;5045234;28;20212;-79
2023/07/04 02:40:58;;;;;;;5.27;3.63;;;18.30;99.90;;;;;;5045329;28;20370;-79
2023/07/04 02:43:25;;;;;;;8.20;4.20;;;18.20;99.90;;;;;;5045168;28;20287;-79
2023/07/04 02:45:52;;;;;;;5.23;3.70;;;18.20;99.90;;;;;;5045291;28;20230;-79
2023/07/04 02:48:19;;;;;;;11.30;4.47;;;18.20;99.90;;;;;;5045533;28;20214;-78
2023/07/04 02:50:46;;;;;;;6.33;4.10;;;18.20;99.90;;;;;;5044875;28;20332;-79
2023/07/04 02:53:20;;;;;;;6.67;4.53;;;18.20;99.90;;;;;;5044098;28;20294;-77
2023/07/04 02:55:47;;;;;;;6.77;4.40;;;18.20;99.90;;;;;;5043946;28;20314;-77
2023/07/04 02:58:14;;;;;;;8.03;4.00;;;18.10;99.90;;;;;;5044359;28;20291;-77
2023/07/04 03:00:41;;;;;;;5.60;4.03;;;18.10;99.90;;;;;;5044224;28;20200;-79
2023/07/04 03:03:08;;;;;;;5.10;4.50;;;18.00;99.90;;;;;;5044201;28;20299;-77
2023/07/04 03:05:36;;;;;;;8.37;4.40;;;18.00;99.90;;;;;;5043488;28;20204;-79
2023/07/04 03:08:03;;;;;;;5.57;3.90;;;18.10;99.90;;;;;;5045471;28;20211;-77
2023/07/04 03:10:31;;;;;;;5.80;4.13;;;18.00;99.90;;;;;;5046635;28;20308;-75
2023/07/04 03:12:58;;;;;;;9.50;4.87;;;18.00;99.90;;;;;;5045394;28;20211;-76
2023/07/04 03:15:25;;;;;;;9.87;4.43;;;17.90;99.90;;;;;;5045725;28;20351;-76
2023/07/04 03:17:53;;;;;;;4.70;3.80;;;17.90;99.90;;;;;;5045763;28;20581;-76
2023/07/04 03:20:20;;;;;;;8.93;4.17;;;17.80;99.90;;;;;;5045847;28;20231;-76
2023/07/04 03:22:48;;;;;;;9.27;3.70;;;17.80;99.90;;;;;;5045967;28;20204;-76
2023/07/04 03:25:15;;;;;;;6.57;4.10;;;17.80;99.90;;;;;;5045809;28;20215;-76
2023/07/04 03:27:44;;;;;;;8.13;4.40;;;17.70;99.90;;;;;;5045931;28;20203;-76
2023/07/04 03:30:12;;;;;;;7.77;4.63;;;17.70;99.90;;;;;;5045871;28;20219;-79
2023/07/04 03:32:39;;;;;;;6.53;4.10;;;17.70;99.90;;;;;;5045465;28;20224;-76
2023/07/04 03:35:08;;;;;;;6.83;4.40;;;17.60;99.90;;;;;;5045620;28;20716;-76
2023/07/04 03:37:36;;;;;;;5.47;4.10;;;17.60;99.90;;;;;;5033217;28;20224;-76
2023/07/04 03:40:07;;;;;;;7.53;4.60;;;17.50;99.90;;;;;;5025809;28;20770;-76
2023/07/04 03:42:34;;;;;;;5.83;4.10;;;17.50;99.90;;;;;;5025731;28;20267;-76
2023/07/04 03:45:03;;;;;;;6.93;4.17;;;17.50;99.90;;;;;;5025521;28;20227;-76
2023/07/04 03:47:30;;;;;;;7.23;4.13;;;17.40;99.90;;;;;;5025353;28;20323;-76
2023/07/04 03:49:57;;;;;;;6.57;4.00;;;17.40;99.90;;;;;;5043938;28;20212;-75
2023/07/04 03:52:25;;;;;;;8.57;4.20;;;17.40;99.90;;;;;;5044927;28;20218;-76
2023/07/04 03:54:52;;;;;;;6.00;4.27;;;17.40;99.90;;;;;;5045482;28;20286;-76
2023/07/04 03:57:20;;;;;;;5.93;4.43;;;17.40;99.90;;;;;;5045479;28;20246;-76
2023/07/04 03:59:47;;;;;;;8.33;4.47;;;17.40;99.90;;;;;;5045599;28;20239;-76
2023/07/04 04:02:15;;;;;;;8.30;4.50;;;17.40;99.90;;;;;;5045717;28;20211;-76
2023/07/04 04:04:42;;;;;;;5.00;4.00;;;17.40;99.90;;;;;;5044846;28;20757;-76
2023/07/04 04:07:09;;;;;;;6.63;3.80;;;17.30;99.90;;;;;;5035980;28;20239;-76
2023/07/04 04:09:37;;;;;;;4.63;3.80;;;17.40;99.90;;;;;;5025229;28;20626;-76
2023/07/04 04:12:05;;;;;;;7.10;4.20;;;17.40;99.90;;;;;;5030208;28;20835;-76
2023/07/04 04:14:33;;;;;;;8.00;4.00;;;17.40;99.90;;;;;;5024626;28;20299;-76
2023/07/04 04:17:00;;;;;;;8.80;4.00;;;17.40;99.90;;;;;;5024830;28;20233;-76
2023/07/04 04:19:29;;;;;;;4.80;3.70;;;17.40;99.90;;;;;;5024978;28;20228;-76
2023/07/04 04:21:56;;;;;;;6.93;3.97;;;17.40;99.90;;;;;;5024914;28;20331;-76
2023/07/04 04:24:23;;;;;;;8.60;4.27;;;17.40;99.90;;;;;;5025316;28;20232;-76
2023/07/04 04:26:50;;;;;;;6.03;3.67;;;17.40;99.90;;;;;;5042720;28;20295;-76
2023/07/04 04:29:19;;;;;;;7.53;4.10;;;17.40;99.90;;;;;;5044521;28;20232;-76
2023/07/04 04:31:46;;;;;;;8.03;4.07;;;17.40;99.90;;;;;;5044050;28;20224;-76
2023/07/04 04:34:16;;;;;;;6.83;4.63;;;17.40;99.90;;;;;;5044403;28;20214;-76
2023/07/04 04:36:45;;;;;;;8.70;4.70;;;17.40;99.90;;;;;;5039017;28;20235;-76
2023/07/04 04:39:12;;;;;;;8.80;4.23;;;17.40;99.90;;;;;;5024573;28;20386;-76
2023/07/04 04:41:38;;;;;;;5.60;3.90;;;17.40;99.90;;;;;;5024558;28;20360;-76
2023/07/04 04:44:06;;;;;;;7.40;4.00;;;17.40;99.90;;;;;;5024945;28;20295;-76
2023/07/04 04:46:33;;;;;;;7.90;4.30;;;17.40;99.90;;;;;;5024567;28;20779;-76
2023/07/04 04:49:02;;;;;;;10.90;4.80;;;17.40;99.90;;;;;;5032967;28;20740;-75
2023/07/04 04:51:29;;;;;;;7.27;4.50;;;17.40;99.90;;;;;;5024496;28;20201;-76
2023/07/04 04:53:58;;;;;;;10.00;4.17;;;17.40;99.90;;;;;;5024779;28;20212;-76
2023/07/04 04:56:25;;;;;;;7.30;4.47;;;17.50;99.90;;;;;;5038712;28;20244;-75
2023/07/04 04:58:53;;;;;;;9.37;4.87;;;17.60;99.90;;;;;;5044518;28;20208;-76
2023/07/04 05:01:22;;;;;;;9.20;4.27;;;17.60;99.90;;;;;;5044283;28;20303;-76
2023/07/04 05:03:52;;;;;;;8.40;4.63;;;17.60;99.90;;;;;;5044418;28;21205;-75
2023/07/04 05:06:19;;;;;;;7.20;3.97;;;17.60;99.90;;;;;;5041522;28;20571;-75
2023/07/04 05:08:47;;;;;;;4.73;4.00;;;17.60;99.90;;;;;;5044257;28;20212;-75
2023/07/04 05:11:15;;;;;;;7.80;4.40;;;17.60;99.90;;;;;;5044404;28;20204;-76
2023/07/04 05:13:44;;;;;;;6.50;4.30;;;17.50;99.90;;;;;;5044806;28;20278;-76
2023/07/04 05:16:13;;;;;;;10.03;4.53;;;17.50;99.90;;;;;;5044968;28;20232;-75
2023/07/04 05:18:41;;;;;;;9.00;4.40;;;17.50;99.90;;;;;;5048202;28;21032;-76
2023/07/04 05:21:10;;;;;;;8.87;5.03;;;17.50;99.90;;;;;;5048298;28;20212;-76
2023/07/04 05:23:39;;;;;;;5.87;4.47;;;17.50;99.90;;;;;;5048481;28;20300;-75
2023/07/04 05:26:09;;;;;;;7.53;4.63;;;17.50;99.90;;;;;;5048178;28;20299;-75
2023/07/04 05:28:37;;;;;;;7.50;4.20;;;17.50;99.90;;;;;;5047778;28;20208;-75
2023/07/04 05:31:06;;;;;;;6.53;4.23;;;17.50;99.90;;;;;;5047996;28;20327;-75
2023/07/04 05:33:34;;;;;;;6.93;4.83;;;17.60;99.90;;;;;;5047761;28;20299;-76
2023/07/04 05:36:06;;;;;;;8.60;3.90;;;17.70;99.90;;;;;;5047683;28;20434;-76
2023/07/04 05:38:33;;;;;;;9.60;4.33;;;17.70;99.90;;;;;;5027941;28;20219;-76
2023/07/04 05:41:00;;;;;;;8.70;4.80;;;17.70;99.90;;;;;;5027984;28;20664;-76
2023/07/04 05:43:27;;;;;;;8.87;4.30;;;17.70;99.90;;;;;;5032338;28;20640;-76
2023/07/04 05:45:56;;;;;;;7.40;4.00;;;17.70;99.90;;;;;;5047696;28;20204;-75
2023/07/04 05:48:23;;;;;;;8.20;4.03;;;17.70;99.90;;;;;;5047562;28;20212;-75
2023/07/04 05:50:51;;;;;;;8.87;3.83;;;17.70;99.90;;;;;;5047419;28;20212;-75
2023/07/04 05:53:19;;;;;;;6.57;3.83;;;17.60;99.90;;;;;;5047470;28;20311;-76
2023/07/04 05:55:45;;;;;;;8.53;3.70;;;17.50;99.90;;;;;;5047245;28;20222;-75
2023/07/04 05:58:12;;;;;;;7.83;3.93;;;17.50;99.90;;;;;;5047694;28;20327;-77
2023/07/04 06:00:39;;;;;;;7.73;3.30;;;17.50;99.90;;;;;;5047305;28;20212;-76
2023/07/04 06:03:07;;;;;;;9.97;3.33;;;17.50;99.90;;;;;;5047151;28;20295;-76
2023/07/04 06:05:39;;;;;;;5.37;3.53;;;17.60;99.90;;;;;;5027600;28;20241;-75
2023/07/04 06:08:07;;;;;;;6.47;3.10;;;17.60;99.90;;;;;;5043951;28;20702;-76
2023/07/04 06:10:34;;;;;;;3.60;2.40;;;17.60;99.90;;;;;;5047141;28;20243;-76
2023/07/04 06:13:01;;;;;;;3.10;2.40;;;17.60;99.90;;;;;;5046923;28;20706;-76
2023/07/04 06:15:29;;;;;;;3.23;2.50;;;17.60;99.90;;;;;;5047211;28;20244;-75
2023/07/04 06:17:56;;;;;;;7.37;2.57;;;17.40;99.90;;;;;;5047174;28;20236;-76
2023/07/04 06:20:25;;;;;;;3.47;2.50;;;17.40;99.90;;;;;;5030079;28;20208;-76
2023/07/04 06:22:51;;;;;;;3.77;2.77;;;17.40;99.90;;;;;;5034661;28;20619;-76
2023/07/04 06:25:18;;;;;;;4.70;2.50;;;17.40;99.90;;;;;;5046939;28;20214;-76
2023/07/04 06:27:45;;;;;;;3.23;2.60;;;17.40;99.90;;;;;;5046176;28;20295;-76
2023/07/04 06:30:13;;;;;;;6.70;2.83;;;17.50;99.90;;;;;;5046614;28;20251;-76
2023/07/04 06:32:41;;;;;;;4.40;2.90;;;17.60;99.90;;;;;;5046644;28;20269;-76
2023/07/04 06:35:09;;;;;;;4.90;2.67;;;17.50;99.90;;;;;;5046668;28;20866;-76
2023/07/04 06:37:37;;;;;;;6.07;2.47;;;17.50;99.90;;;;;;5046737;28;20227;-76
2023/07/04 06:40:05;;;;;;;6.03;2.50;;;17.60;99.90;;;;;;5046773;28;20235;-75
2023/07/04 06:42:34;;;;;;;8.23;2.80;;;17.60;99.90;;;;;;5046360;28;20247;-75
2023/07/04 06:45:00;;;;;;;4.07;2.47;;;17.70;99.90;;;;;;5046907;28;20852;-76
2023/07/04 06:47:27;;;;;;;4.73;2.70;;;17.70;99.90;;;;;;5046577;28;20675;-76
2023/07/04 06:49:55;;;;;;;3.30;2.20;;;17.70;99.90;;;;;;5046723;28;20307;-76
2023/07/04 06:52:22;;;;;;;6.30;2.37;;;17.70;99.90;;;;;;5046688;28;20217;-76
2023/07/04 06:54:52;;;;;;;5.67;2.77;;;17.70;99.90;;;;;;5046376;28;20208;-76
2023/07/04 06:57:20;;;;;;;3.27;2.13;;;17.70;99.90;;;;;;5046089;28;20232;-76
2023/07/04 06:59:47;;;;;;;5.03;2.73;;;17.70;99.90;;;;;;5046197;28;20813;-76
2023/07/04 07:02:15;;;;;;;5.37;2.70;;;17.80;99.90;;;;;;5046556;28;20228;-76
2023/07/04 07:04:42;;;;;;;4.57;2.33;;;17.80;99.90;;;;;;5046496;28;20236;-75
2023/07/04 07:07:10;;;;;;;4.57;2.30;;;17.90;99.90;;;;;;5037286;28;20320;-75
2023/07/04 07:09:41;;;;;;;6.37;2.77;;;17.90;99.90;;;;;;5026326;28;20209;-75
2023/07/04 07:12:11;;;;;;;5.37;2.57;;;18.00;99.90;;;;;;5026808;28;20228;-75
2023/07/04 07:14:39;;;;;;;5.90;2.97;;;18.10;99.90;;;;;;5026857;28;20308;-76
2023/07/04 07:17:07;;;;;;;5.87;2.80;;;18.20;99.90;;;;;;5046454;28;20641;-76
2023/07/04 07:19:34;;;;;;;5.63;3.23;;;18.30;99.90;;;;;;5045953;28;20370;-76
2023/07/04 07:22:01;;;;;;;5.30;3.13;;;18.30;99.90;;;;;;5045813;28;20219;-76
2023/07/04 07:24:29;;;;;;;6.00;3.50;;;18.20;99.90;;;;;;5045753;28;20315;-75
2023/07/04 07:26:56;;;;;;;6.80;3.50;;;18.20;99.90;;;;;;5046017;28;20216;-75
2023/07/04 07:29:26;;;;;;;7.73;3.77;;;18.30;99.90;;;;;;5045629;28;20719;-76
2023/07/04 07:31:53;;;;;;;7.27;3.50;;;18.40;99.90;;;;;;5045439;28;20243;-75
2023/07/04 07:34:20;;;;;;;6.27;3.23;;;18.40;99.90;;;;;;5045662;28;20212;-75
2023/07/04 07:36:48;;;;;;;6.50;3.43;;;18.40;99.90;;;;;;5039516;28;20311;-75
2023/07/04 07:39:17;;;;;;;7.70;3.20;;;18.30;99.90;;;;;;5026400;28;20219;-76
2023/07/04 07:41:45;;;;;;;5.93;3.00;;;18.40;99.90;;;;;;5045672;28;20793;-75
2023/07/04 07:44:14;;;;;;;7.93;2.83;;;18.50;99.90;;;;;;5045419;28;20303;-75
2023/07/04 07:46:43;;;;;;;3.40;2.60;;;18.40;99.90;;;;;;5045681;28;20208;-75
2023/07/04 07:49:10;;;;;;;5.77;2.53;;;18.40;99.90;;;;;;5045519;28;20301;-75
2023/07/04 07:51:38;;;;;;;4.23;2.60;;;18.50;99.90;;;;;;5045487;28;20303;-75
2023/07/04 07:54:07;;;;;;;3.17;2.57;;;18.50;99.90;;;;;;5045287;28;20208;-75
2023/07/04 07:56:39;;;;;;;6.77;2.50;;;18.60;99.90;;;;;;5044985;28;20216;-74
2023/07/04 07:59:06;;;;;;;4.33;2.50;;;18.80;99.90;;;;;;5045219;28;20211;-75
2023/07/04 08:01:34;;;;;;;3.10;2.33;;;18.80;99.90;;;;;;5045001;28;20212;-75
2023/07/04 08:04:04;;;;;;;3.77;2.40;;;18.80;99.90;;;;;;5045274;28;20318;-75
2023/07/04 08:06:38;;;;;;;6.17;2.50;;;18.90;99.90;;;;;;5040718;28;20734;-75
2023/07/04 08:09:07;;;;;;;3.90;2.50;;;19.00;99.90;;;;;;5025051;28;20188;-75
2023/07/04 08:11:34;;;;;;;5.47;2.60;;;19.10;99.90;;;;;;5031068;28;20212;-75
2023/07/04 08:14:02;;;;;;;5.37;2.10;;;19.10;99.90;;;;;;5045348;28;20211;-75
2023/07/04 08:16:30;;;;;;;4.67;2.60;;;19.00;99.90;;;;;;5044628;28;20239;-75
2023/07/04 08:18:59;;;;;;;4.77;2.60;;;19.10;99.90;;;;;;5045253;28;20613;-75
2023/07/04 08:21:29;;;;;;;3.47;1.90;;;19.20;99.90;;;;;;5044504;28;20302;-75
2023/07/04 08:23:56;;;;;;;5.93;2.57;;;19.30;99.90;;;;;;5044941;28;20257;-75
2023/07/04 08:26:26;;;;;;;6.07;2.30;;;19.30;99.90;;;;;;5044661;28;20216;-75
2023/07/04 08:28:54;;;;;;;5.20;2.60;;;19.40;99.90;;;;;;5044963;28;20303;-75
2023/07/04 08:31:22;;;;;;;4.73;2.47;;;19.30;99.90;;;;;;5044450;28;20235;-75
2023/07/04 08:33:49;;;;;;;5.80;2.33;;;19.30;99.90;;;;;;5044945;28;20494;-75
2023/07/04 08:36:17;;;;;;;5.13;2.50;;;19.30;99.90;;;;;;5044881;28;20243;-76
2023/07/04 08:38:48;;;;;;;2.77;2.40;;;19.30;99.90;;;;;;5045144;28;20242;-75
2023/07/04 08:41:26;;;;;;;6.37;2.73;;;19.40;99.90;;;;;;5044659;28;20672;-76
2023/07/04 08:43:58;;;;;;;4.77;2.30;;;19.40;99.90;;;;;;5045493;28;20279;-75
2023/07/04 08:46:26;;;;;;;3.90;2.27;;;19.30;99.90;;;;;;5044675;28;20232;-75
2023/07/04 08:48:53;;;;;;;4.37;2.40;;;19.40;99.90;;;;;;5044804;28;20303;-75
2023/07/04 08:51:30;;;;;;;4.67;1.90;;;19.30;99.90;;;;;;5044919;28;20204;-75
2023/07/04 08:54:01;;;;;;;3.43;1.90;;;19.30;99.90;;;;;;5048915;28;20208;-75
2023/07/04 08:56:34;;;;;;;6.20;2.30;;;19.40;99.90;;;;;;5048462;28;20699;-75
2023/07/04 08:59:10;;;;;;;8.57;2.40;;;19.40;99.90;;;;;;5048722;28;20258;-75
2023/07/04 09:01:47;;;;;;;5.40;2.43;;;19.50;99.90;;;;;;5048386;28;20693;-75
2023/07/04 09:04:19;;;;;;;5.43;2.20;;;19.50;99.90;;;;;;5048381;28;20674;-76
2023/07/04 09:06:52;;;;;;;8.13;2.63;;;19.60;99.90;;;;;;5048672;28;20211;-75
2023/07/04 09:09:25;;;;;;;3.07;2.00;;;19.60;99.90;;;;;;5048186;28;20232;-75
2023/07/04 09:11:53;;;;;;;5.07;2.30;;;19.50;99.90;;;;;;5048853;28;20204;-75
2023/07/04 09:14:37;;;;;;;3.77;2.13;;;19.40;99.90;;;;;;5048725;28;20269;-75
2023/07/04 09:17:15;;;;;;;3.87;2.00;;;19.40;99.90;;;;;;5048315;28;20683;-75
2023/07/04 09:19:46;;;;;;;3.13;2.03;;;19.40;99.90;;;;;;5048038;28;20287;-75
2023/07/04 09:22:14;;;;;;;2.60;2.13;;;19.40;99.90;;;;;;5047930;28;20212;-75
2023/07/04 09:24:42;;;;;;;4.80;2.20;;;19.50;99.90;;;;;;5048121;28;20208;-75
2023/07/04 09:27:12;;;;;;;5.97;2.50;;;19.70;99.90;;;;;;5028046;28;20813;-75
2023/07/04 09:29:39;;;;;;;3.40;2.20;;;19.80;99.90;;;;;;5036768;28;20210;-75
2023/07/04 09:32:08;;;;;;;3.43;2.13;;;19.50;99.90;;;;;;5047601;28;20318;-75
2023/07/04 09:34:41;;;;;;;2.93;2.10;;;19.60;99.90;;;;;;5047791;28;20212;-75
2023/07/04 09:37:13;;;;;;;5.50;2.30;;;19.50;99.90;;;;;;5047670;28;20200;-76
2023/07/04 09:39:48;;;;;;;4.27;1.87;;;19.70;99.90;;;;;;5047760;28;20283;-75
2023/07/04 09:42:16;;;;;;;5.63;1.97;;;19.90;99.90;;;;;;5048034;28;20196;-75
2023/07/04 09:44:44;;;;;;;10.97;1.90;;;20.20;99.90;;;;;;5047960;28;20211;-75
2023/07/04 09:47:20;;;;;;;3.60;1.67;;;20.30;99.90;;;;;;5047807;28;20200;-75
2023/07/04 09:49:47;;;;;;;3.27;1.90;;;20.40;99.90;;;;;;5047832;28;20294;-75
2023/07/04 09:52:24;;;;;;;4.23;1.90;;;20.30;99.90;;;;;;5047659;28;20671;-76
2023/07/04 09:57:46;;;;;;;6.40;1.73;;;20.50;99.90;;;;;;5144316;27;20627;-76
2023/07/04 10:00:17;;;;;;;5.40;2.30;;;20.70;99.90;;;;;;5144194;27;21160;-77
2023/07/04 10:02:46;;;;;;;3.70;1.90;;;20.80;99.90;;;;;;5144308;27;20193;-76
2023/07/04 10:05:25;;;;;;;3.63;1.50;;;20.80;99.60;;;;;;5143832;27;20292;-76
2023/07/04 10:08:05;;;;;;;3.20;2.13;;;20.80;99.50;;;;;;5143795;27;20233;-76
2023/07/04 10:10:35;;;;;;;4.83;1.83;;;20.80;99.30;;;;;;5143909;27;20223;-76
2023/07/04 10:13:06;;;;;;;2.53;2.03;;;21.10;99.30;;;;;;5144500;27;20205;-76
2023/07/04 10:15:42;;;;;;;2.40;1.87;;;21.20;98.90;;;;;;5143266;27;20589;-76
2023/07/04 10:18:24;;;;;;;4.03;1.90;;;21.10;99.00;;;;;;5143969;27;20578;-76
2023/07/04 10:20:54;;;;;;;5.25;2.03;;;21.10;99.20;;;;;;5143792;27;20202;-76
2023/07/04 10:23:22;;;;;;;2.30;1.88;;;21.20;99.50;;;;;;5143551;27;20683;-76
2023/07/04 10:25:51;;;;;;;3.87;2.10;;;21.30;99.00;;;;;;5143526;27;20208;-76
2023/07/04 10:28:23;;;;;;;5.03;2.00;;;21.30;99.20;;;;;;5143843;27;20204;-76
2023/07/04 10:30:55;;;;;;;1.88;1.70;;;21.40;98.50;;;;;;5143283;27;20265;-76
2023/07/04 10:33:28;;;;;;;2.90;1.95;;;21.30;98.90;;;;;;5143232;27;20197;-76
2023/07/04 10:35:55;;;;;;;3.53;1.80;;;21.10;99.10;;;;;;5143038;27;20247;-76
2023/07/04 10:38:34;;;;;;;3.20;2.00;;;21.00;99.30;;;;;;5143553;27;20597;-77
2023/07/04 10:41:10;;;;;;;4.03;2.10;;;20.80;99.50;;;;;;5143274;27;20239;-76
2023/07/04 10:43:42;;;;;;;4.57;2.17;;;20.60;99.80;;;;;;5142651;27;20976;-77
2023/07/04 10:46:12;;;;;;;4.80;1.90;;;20.60;99.80;;;;;;5128210;27;20209;-76
2023/07/04 10:48:42;;;;;;;3.50;2.00;;;20.50;99.90;;;;;;5122278;28;20201;-77
2023/07/04 10:51:19;;;;;;;3.50;1.87;;;20.40;99.90;;;;;;5122408;28;20326;-76
2023/07/04 10:53:46;;;;;;;4.83;2.47;;;20.30;99.90;;;;;;5122543;28;20276;-76
2023/07/04 10:56:20;;;;;;;4.27;1.93;;;20.20;99.90;;;;;;5147105;27;20773;-76
2023/07/04 10:58:51;;;;;;;2.70;2.07;;;20.20;99.90;;;;;;5163623;27;20202;-76
2023/07/04 11:01:22;;;;;;;5.47;2.50;;;20.20;99.90;;;;;;5163426;27;20200;-76
2023/07/04 11:03:54;;;;;;;6.47;2.27;;;20.20;99.90;;;;;;5157845;27;20289;-76
2023/07/04 11:06:30;;;;;;;3.93;2.13;;;20.30;99.90;;;;;;5141948;27;20801;-76
2023/07/04 11:09:00;;;;;;;4.50;2.53;;;20.40;99.90;;;;;;5129203;27;20675;-76
2023/07/04 11:11:29;;;;;;;5.47;2.50;;;20.30;99.90;;;;;;5128460;27;20328;-76
2023/07/04 11:14:01;;;;;;;3.17;2.17;;;20.20;99.90;;;;;;5128954;27;20225;-76
2023/07/04 11:16:31;;;;;;;4.33;2.33;;;20.20;99.90;;;;;;5128243;27;20213;-76
2023/07/04 11:19:05;;;;;;;4.47;2.30;;;20.20;99.90;;;;;;5128255;27;20232;-76
2023/07/04 11:21:32;;;;;;;6.83;2.57;;;20.20;99.90;;;;;;5128219;27;20298;-76
2023/07/04 11:24:15;;;;;;;3.60;2.53;;;20.20;99.90;;;;;;5127912;27;20957;-76
2023/07/04 11:26:50;;;;;;;3.40;2.27;;;20.20;99.90;;;;;;5128099;27;20278;-76
2023/07/04 11:29:20;;;;;;;4.70;2.47;;;20.20;99.90;;;;;;5128108;27;20201;-77
2023/07/04 11:32:13;;;;;;;5.57;2.67;;;20.10;99.90;;;;;;5128276;27;20227;-76
2023/07/04 11:34:45;;;;;;;3.77;2.60;;;20.20;99.90;;;;;;5114642;27;20212;-77
2023/07/04 11:37:17;;;;;;;6.43;2.67;;;20.10;99.90;;;;;;5112627;27;20240;-76
2023/07/04 11:39:50;;;;;;;5.23;2.50;;;20.20;99.90;;;;;;5107642;28;20291;-76
2023/07/04 11:42:21;;;;;;;3.47;2.20;;;20.40;99.90;;;;;;5127033;27;20237;-76
2023/07/04 11:45:03;;;;;;;2.50;2.30;;;20.70;99.90;;;;;;5128419;27;20220;-77
2023/07/04 11:47:36;;;;;;;6.67;2.50;;;20.90;99.90;;;;;;5128848;27;20193;-77
2023/07/04 11:50:10;;;;;;;6.77;2.60;;;21.10;99.90;;;;;;5128836;27;20201;-78
2023/07/04 11:52:41;;;;;;;4.97;2.73;;;21.10;99.20;;;;;;5128151;27;20200;-76
2023/07/04 11:55:11;;;;;;;5.60;2.60;;;20.90;99.30;;;;;;5131537;27;20207;-77
2023/07/04 11:58:16;;;;;;;5.10;2.67;;;20.90;99.50;;;;;;5147827;27;20656;-76
2023/07/04 12:01:05;;;;;;;2.50;2.30;;;21.10;99.90;;;;;;5136850;27;20216;-76
2023/07/04 12:04:03;;;;;;;5.43;2.90;;;21.30;99.80;;;;;;5127540;27;20198;-76
2023/07/04 12:06:53;;;;;;;5.93;2.90;;;21.50;99.90;;;;;;5123807;27;20302;-76
2023/07/04 12:09:42;;;;;;;5.55;2.90;;;21.60;99.50;;;;;;5106862;28;20195;-76
2023/07/04 12:12:18;;;;;;;8.20;3.00;;;21.50;99.70;;;;;;5106831;28;20221;-76
2023/07/04 12:14:48;;;;;;;5.28;3.10;;;21.40;99.60;;;;;;5107151;28;20213;-76
2023/07/04 12:17:17;;;;;;;5.78;2.90;;;21.30;99.70;;;;;;5106710;28;20824;-77
2023/07/04 12:19:44;;;;;;;6.28;2.70;;;21.30;99.80;;;;;;5105739;28;20210;-77
2023/07/04 12:22:16;;;;;;;4.00;2.90;;;21.30;99.80;;;;;;5107019;28;20561;-76
2023/07/04 12:24:44;;;;;;;5.63;2.97;;;21.20;99.70;;;;;;5107041;28;20699;-76
2023/07/04 12:27:12;;;;;;;5.40;2.83;;;21.30;99.90;;;;;;5107101;28;20610;-77
2023/07/04 12:29:46;;;;;;;10.27;3.30;;;21.40;99.50;;;;;;5115958;27;20206;-77
2023/07/04 12:32:21;;;;;;;7.78;3.03;;;21.60;99.90;;;;;;5127380;27;20284;-77
2023/07/04 12:34:48;;;;;;;4.60;2.92;;;22.00;99.60;;;;;;5127107;27;20203;-77
2023/07/04 12:37:19;;;;;;;8.25;3.00;;;21.90;98.90;;;;;;5126643;27;20316;-77
2023/07/04 12:39:48;;;;;;;7.93;2.90;;;22.10;99.40;;;;;;5127512;27;20200;-77
2023/07/04 12:42:25;;;;;;;4.55;2.65;;;22.50;99.00;;;;;;5127220;27;20696;-77
2023/07/04 12:44:52;;;;;;;5.30;2.60;;;22.40;97.70;;;;;;5127354;27;20766;-77
2023/07/04 12:47:23;;;;;;;7.18;3.20;;;22.50;97.80;;;;;;5126733;27;20205;-77
2023/07/04 12:49:53;;;;;;;5.82;3.08;;;22.60;97.60;;;;;;5127243;27;20197;-77
2023/07/04 12:52:26;;;;;;;6.70;3.08;;;22.80;97.70;;;;;;5126590;27;20233;-77
2023/07/04 12:54:53;;;;;;;6.68;2.75;;;22.90;97.90;;;;;;5127287;27;20200;-77
2023/07/04 12:57:25;;;;;;;4.20;2.60;;;22.80;97.20;;;;;;5137405;27;20241;-77
2023/07/04 12:59:53;;;;;;;4.22;2.45;;;22.70;97.30;;;;;;5147318;27;20279;-77
2023/07/04 13:02:25;;;;;;;6.80;2.90;;;22.70;97.50;;;;;;5146952;27;20211;-77